sensor_id;sensor_type;location;lat;lon;timestamp;temperature;humidity
21616;DHT22;10970;48.714;9.584;2023-04-24T00:00:01;10.60;99.90
21616;DHT22;10970;48.714;9.584;2023-04-24T00:02:28;10.60;99.90
21616;DHT22;10970;48.714;9.584;2023-04-24T00:04:54;10.50;99.90
21616;DHT22;10970;48.714;9.584;2023-04-24T00:07:19;10.50;99.90
21616;DHT22;10970;48.714;9.584;2023-04-24T00:09:45;10.50;99.90
21616;DHT22;10970;48.714;9.584;2023-04-24T00:12:11;10.40;99.90
21616;DHT22;10970;48.714;9.584;2023-04-24T00:14:37;10.40;99.90
21616;DHT22;10970;48.714;9.584;2023-04-24T00:17:02;10.40;99.90
21616;DHT22;10970;48.714;9.584;2023-04-24T00:19:29;10.30;99.90
21616;DHT22;10970;48.714;9.584;2023-04-24T00:21:54;10.30;99.90
21616;DHT22;10970;48.714;9.584;2023-04-24T00:24:20;10.30;99.90
21616;DHT22;10970;48.714;9.584;2023-04-24T00:26:46;10.30;99.90
21616;DHT22;10970;48.714;9.584;2023-04-24T00:29:12;10.30;99.90
21616;DHT22;10970;48.714;9.584;2023-04-24T00:31:38;10.30;99.90
21616;DHT22;10970;48.714;9.584;2023-04-24T00:34:04;10.30;99.90
21616;DHT22;10970;48.714;9.584;2023-04-24T00:36:30;10.30;99.90
21616;DHT22;10970;48.714;9.584;2023-04-24T00:38:56;10.30;99.90
21616;DHT22;10970;48.714;9.584;2023-04-24T00:41:22;10.30;99.90
21616;DHT22;10970;48.714;9.584;2023-04-24T00:43:48;10.30;99.90
21616;DHT22;10970;48.714;9.584;2023-04-24T00:46:14;10.30;99.90
21616;DHT22;10970;48.714;9.584;2023-04-24T00:48:41;10.40;99.90
21616;DHT22;10970;48.714;9.584;2023-04-24T00:51:06;10.40;99.90
21616;DHT22;10970;48.714;9.584;2023-04-24T00:53:32;10.40;99.90
21616;DHT22;10970;48.714;9.584;2023-04-24T00:55:58;10.40;99.90
21616;DHT22;10970;48.714;9.584;2023-04-24T00:58:25;10.40;99.90
21616;DHT22;10970;48.714;9.584;2023-04-24T01:00:52;10.40;99.90
21616;DHT22;10970;48.714;9.584;2023-04-24T01:03:24;10.40;99.90
21616;DHT22;10970;48.714;9.584;2023-04-24T01:05:52;10.30;99.90
21616;DHT22;10970;48.714;9.584;2023-04-24T01:08:18;10.30;99.90
21616;DHT22;10970;48.714;9.584;2023-04-24T01:10:44;10.30;99.90
21616;DHT22;10970;48.714;9.584;2023-04-24T01:13:11;10.30;99.90
21616;DHT22;10970;48.714;9.584;2023-04-24T01:15:37;10.20;99.90
21616;DHT22;10970;48.714;9.584;2023-04-24T01:18:03;10.20;99.90
21616;DHT22;10970;48.714;9.584;2023-04-24T01:20:29;10.20;99.90
21616;DHT22;10970;48.714;9.584;2023-04-24T01:22:55;10.20;99.90
21616;DHT22;10970;48.714;9.584;2023-04-24T01:25:22;10.20;99.90
21616;DHT22;10970;48.714;9.584;2023-04-24T01:27:48;10.20;99.90
21616;DHT22;10970;48.714;9.584;2023-04-24T01:30:14;10.20;99.90
21616;DHT22;10970;48.714;9.584;2023-04-24T01:32:40;10.20;99.90
21616;DHT22;10970;48.714;9.584;2023-04-24T01:35:07;10.20;99.90
21616;DHT22;10970;48.714;9.584;2023-04-24T01:37:33;10.20;99.90
21616;DHT22;10970;48.714;9.584;2023-04-24T01:39:59;10.20;99.90
21616;DHT22;10970;48.714;9.584;2023-04-24T01:42:25;10.20;99.90
21616;DHT22;10970;48.714;9.584;2023-04-24T01:44:51;10.30;99.90
21616;DHT22;10970;48.714;9.584;2023-04-24T01:47:17;10.30;99.90
21616;DHT22;10970;48.714;9.584;2023-04-24T01:49:43;10.30;99.90
21616;DHT22;10970;48.714;9.584;2023-04-24T01:52:10;10.30;99.90
21616;DHT22;10970;48.714;9.584;2023-04-24T01:54:35;10.30;99.90
21616;DHT22;10970;48.714;9.584;2023-04-24T01:57:01;10.30;99.90
21616;DHT22;10970;48.714;9.584;2023-04-24T01:59:28;10.30;99.90
21616;DHT22;10970;48.714;9.584;2023-04-24T02:01:55;10.30;99.90
21616;DHT22;10970;48.714;9.584;2023-04-24T02:04:20;10.30;99.90
21616;DHT22;10970;48.714;9.584;2023-04-24T02:06:46;10.30;99.90
21616;DHT22;10970;48.714;9.584;2023-04-24T02:09:12;10.20;99.90
21616;DHT22;10970;48.714;9.584;2023-04-24T02:11:37;10.20;99.90
21616;DHT22;10970;48.714;9.584;2023-04-24T02:14:03;10.20;99.90
21616;DHT22;10970;48.714;9.584;2023-04-24T02:16:29;10.20;99.90
21616;DHT22;10970;48.714;9.584;2023-04-24T02:18:58;10.20;99.90
21616;DHT22;10970;48.714;9.584;2023-04-24T02:21:24;10.20;99.90
21616;DHT22;10970;48.714;9.584;2023-04-24T02:23:49;10.20;99.90
21616;DHT22;10970;48.714;9.584;2023-04-24T02:26:15;10.20;99.90
21616;DHT22;10970;48.714;9.584;2023-04-24T02:28:41;10.10;99.90
21616;DHT22;10970;48.714;9.584;2023-04-24T02:31:07;10.10;99.90
21616;DHT22;10970;48.714;9.584;2023-04-24T02:33:32;10.10;99.90
21616;DHT22;10970;48.714;9.584;2023-04-24T02:35:58;10.10;99.90
21616;DHT22;10970;48.714;9.584;2023-04-24T02:38:24;10.10;99.90
21616;DHT22;10970;48.714;9.584;2023-04-24T02:40:50;10.10;99.90
21616;DHT22;10970;48.714;9.584;2023-04-24T02:43:16;10.10;99.90
21616;DHT22;10970;48.714;9.584;2023-04-24T02:45:41;10.10;99.90
21616;DHT22;10970;48.714;9.584;2023-04-24T02:48:07;10.10;99.90
21616;DHT22;10970;48.714;9.584;2023-04-24T02:50:32;10.10;99.90
21616;DHT22;10970;48.714;9.584;2023-04-24T02:52:59;10.10;99.90
21616;DHT22;10970;48.714;9.584;2023-04-24T02:55:24;10.10;99.90
21616;DHT22;10970;48.714;9.584;2023-04-24T02:57:50;10.00;99.90
21616;DHT22;10970;48.714;9.584;2023-04-24T03:00:16;10.00;99.90
21616;DHT22;10970;48.714;9.584;2023-04-24T03:02:42;10.00;99.90
21616;DHT22;10970;48.714;9.584;2023-04-24T03:05:07;10.00;99.90
21616;DHT22;10970;48.714;9.584;2023-04-24T03:07:34;9.90;99.90
21616;DHT22;10970;48.714;9.584;2023-04-24T03:10:00;9.90;99.90
21616;DHT22;10970;48.714;9.584;2023-04-24T03:12:25;10.00;99.90
21616;DHT22;10970;48.714;9.584;2023-04-24T03:14:51;10.00;99.90
21616;DHT22;10970;48.714;9.584;2023-04-24T03:17:17;10.00;99.90
21616;DHT22;10970;48.714;9.584;2023-04-24T03:19:42;10.00;99.90
21616;DHT22;10970;48.714;9.584;2023-04-24T03:22:08;9.90;99.90
21616;DHT22;10970;48.714;9.584;2023-04-24T03:24:34;10.00;99.90
21616;DHT22;10970;48.714;9.584;2023-04-24T03:27:00;9.90;99.90
21616;DHT22;10970;48.714;9.584;2023-04-24T03:29:26;9.90;99.90
21616;DHT22;10970;48.714;9.584;2023-04-24T03:31:51;9.90;99.90
21616;DHT22;10970;48.714;9.584;2023-04-24T03:34:17;10.10;99.90
21616;DHT22;10970;48.714;9.584;2023-04-24T03:36:43;10.00;99.90
21616;DHT22;10970;48.714;9.584;2023-04-24T03:39:09;10.00;99.90
21616;DHT22;10970;48.714;9.584;2023-04-24T03:41:35;10.00;99.90
21616;DHT22;10970;48.714;9.584;2023-04-24T03:44:01;10.10;99.90
21616;DHT22;10970;48.714;9.584;2023-04-24T03:46:26;10.10;99.90
21616;DHT22;10970;48.714;9.584;2023-04-24T03:48:52;10.10;99.90
21616;DHT22;10970;48.714;9.584;2023-04-24T03:51:18;10.10;99.90
21616;DHT22;10970;48.714;9.584;2023-04-24T03:53:43;10.00;99.90
21616;DHT22;10970;48.714;9.584;2023-04-24T03:56:09;10.00;99.90
21616;DHT22;10970;48.714;9.584;2023-04-24T03:58:35;10.10;99.90
21616;DHT22;10970;48.714;9.584;2023-04-24T04:01:00;10.10;99.90
21616;DHT22;10970;48.714;9.584;2023-04-24T04:03:26;10.00;99.90
21616;DHT22;10970;48.714;9.584;2023-04-24T04:05:51;10.00;99.90
21616;DHT22;10970;48.714;9.584;2023-04-24T04:08:18;10.00;99.90
21616;DHT22;10970;48.714;9.584;2023-04-24T04:10:44;10.00;99.90
21616;DHT22;10970;48.714;9.584;2023-04-24T04:13:09;10.00;99.90
21616;DHT22;10970;48.714;9.584;2023-04-24T04:15:35;10.00;99.90
21616;DHT22;10970;48.714;9.584;2023-04-24T04:18:01;10.00;99.90
21616;DHT22;10970;48.714;9.584;2023-04-24T04:20:26;10.00;99.90
21616;DHT22;10970;48.714;9.584;2023-04-24T04:22:52;9.90;99.90
21616;DHT22;10970;48.714;9.584;2023-04-24T04:25:18;9.90;99.90
21616;DHT22;10970;48.714;9.584;2023-04-24T04:27:45;9.90;99.90
21616;DHT22;10970;48.714;9.584;2023-04-24T04:30:13;9.90;99.90
21616;DHT22;10970;48.714;9.584;2023-04-24T04:32:39;9.90;99.90
21616;DHT22;10970;48.714;9.584;2023-04-24T04:35:05;9.90;99.90
21616;DHT22;10970;48.714;9.584;2023-04-24T04:37:34;9.80;99.90
21616;DHT22;10970;48.714;9.584;2023-04-24T04:40:00;9.80;99.90
21616;DHT22;10970;48.714;9.584;2023-04-24T04:42:26;9.90;99.90
21616;DHT22;10970;48.714;9.584;2023-04-24T04:44:53;9.80;99.90
21616;DHT22;10970;48.714;9.584;2023-04-24T04:47:21;9.90;99.90
21616;DHT22;10970;48.714;9.584;2023-04-24T04:49:50;9.90;99.90
21616;DHT22;10970;48.714;9.584;2023-04-24T04:52:17;9.90;99.90
21616;DHT22;10970;48.714;9.584;2023-04-24T04:54:43;10.00;99.90
21616;DHT22;10970;48.714;9.584;2023-04-24T04:57:09;10.10;99.90
21616;DHT22;10970;48.714;9.584;2023-04-24T04:59:35;10.10;99.90
21616;DHT22;10970;48.714;9.584;2023-04-24T05:02:01;10.10;99.90
21616;DHT22;10970;48.714;9.584;2023-04-24T05:04:26;10.10;99.90
21616;DHT22;10970;48.714;9.584;2023-04-24T05:06:52;10.00;99.90
21616;DHT22;10970;48.714;9.584;2023-04-24T05:09:18;9.90;99.90
21616;DHT22;10970;48.714;9.584;2023-04-24T05:11:44;9.90;99.90
21616;DHT22;10970;48.714;9.584;2023-04-24T05:14:10;9.70;99.90
21616;DHT22;10970;48.714;9.584;2023-04-24T05:16:35;9.40;99.90
21616;DHT22;10970;48.714;9.584;2023-04-24T05:19:02;9.30;99.90
21616;DHT22;10970;48.714;9.584;2023-04-24T05:21:28;9.20;99.90
21616;DHT22;10970;48.714;9.584;2023-04-24T05:23:54;9.20;99.90
21616;DHT22;10970;48.714;9.584;2023-04-24T05:26:20;9.20;99.90
21616;DHT22;10970;48.714;9.584;2023-04-24T05:28:46;9.30;99.90
21616;DHT22;10970;48.714;9.584;2023-04-24T05:31:11;9.30;99.90
21616;DHT22;10970;48.714;9.584;2023-04-24T05:33:37;9.30;99.90
21616;DHT22;10970;48.714;9.584;2023-04-24T05:36:03;9.20;99.90
21616;DHT22;10970;48.714;9.584;2023-04-24T05:38:30;9.10;99.90
21616;DHT22;10970;48.714;9.584;2023-04-24T05:40:56;9.10;99.90
21616;DHT22;10970;48.714;9.584;2023-04-24T05:43:22;9.10;99.90
21616;DHT22;10970;48.714;9.584;2023-04-24T05:45:48;9.00;99.90
21616;DHT22;10970;48.714;9.584;2023-04-24T05:48:13;9.00;99.90
21616;DHT22;10970;48.714;9.584;2023-04-24T05:50:39;9.00;99.90
21616;DHT22;10970;48.714;9.584;2023-04-24T05:53:05;9.10;99.90
21616;DHT22;10970;48.714;9.584;2023-04-24T05:55:32;9.00;99.90
21616;DHT22;10970;48.714;9.584;2023-04-24T05:57:58;9.10;99.90
21616;DHT22;10970;48.714;9.584;2023-04-24T06:00:24;9.10;99.90
21616;DHT22;10970;48.714;9.584;2023-04-24T06:02:50;9.20;99.90
21616;DHT22;10970;48.714;9.584;2023-04-24T06:05:16;9.20;99.90
21616;DHT22;10970;48.714;9.584;2023-04-24T06:07:43;9.20;99.90
21616;DHT22;10970;48.714;9.584;2023-04-24T06:10:09;9.30;99.90
21616;DHT22;10970;48.714;9.584;2023-04-24T06:12:35;9.30;99.90
21616;DHT22;10970;48.714;9.584;2023-04-24T06:15:02;9.40;99.90
21616;DHT22;10970;48.714;9.584;2023-04-24T06:17:27;9.40;99.90
21616;DHT22;10970;48.714;9.584;2023-04-24T06:19:53;9.50;99.90
21616;DHT22;10970;48.714;9.584;2023-04-24T06:22:19;9.60;99.90
21616;DHT22;10970;48.714;9.584;2023-04-24T06:24:45;9.60;99.90
21616;DHT22;10970;48.714;9.584;2023-04-24T06:27:10;9.60;99.90
21616;DHT22;10970;48.714;9.584;2023-04-24T06:29:36;9.70;99.90
21616;DHT22;10970;48.714;9.584;2023-04-24T06:32:02;9.80;99.90
21616;DHT22;10970;48.714;9.584;2023-04-24T06:34:27;9.90;99.90
21616;DHT22;10970;48.714;9.584;2023-04-24T06:36:54;10.00;99.90
21616;DHT22;10970;48.714;9.584;2023-04-24T06:39:20;10.00;99.90
21616;DHT22;10970;48.714;9.584;2023-04-24T06:41:46;10.20;99.90
21616;DHT22;10970;48.714;9.584;2023-04-24T06:44:11;10.30;99.90
21616;DHT22;10970;48.714;9.584;2023-04-24T06:46:37;10.40;99.90
21616;DHT22;10970;48.714;9.584;2023-04-24T06:49:03;10.50;99.90
21616;DHT22;10970;48.714;9.584;2023-04-24T06:51:29;10.40;99.90
21616;DHT22;10970;48.714;9.584;2023-04-24T06:53:54;10.20;99.90
21616;DHT22;10970;48.714;9.584;2023-04-24T06:56:21;10.40;99.90
21616;DHT22;10970;48.714;9.584;2023-04-24T06:58:48;10.80;99.90
21616;DHT22;10970;48.714;9.584;2023-04-24T07:01:13;11.10;99.90
21616;DHT22;10970;48.714;9.584;2023-04-24T07:03:39;11.40;99.90
21616;DHT22;10970;48.714;9.584;2023-04-24T07:06:05;11.80;99.90
21616;DHT22;10970;48.714;9.584;2023-04-24T07:08:31;12.10;99.90
21616;DHT22;10970;48.714;9.584;2023-04-24T07:10:59;12.40;99.90
21616;DHT22;10970;48.714;9.584;2023-04-24T07:13:25;12.70;99.90
21616;DHT22;10970;48.714;9.584;2023-04-24T07:15:51;12.90;99.90
21616;DHT22;10970;48.714;9.584;2023-04-24T07:18:19;12.80;99.90
21616;DHT22;10970;48.714;9.584;2023-04-24T07:20:45;12.90;99.90
21616;DHT22;10970;48.714;9.584;2023-04-24T07:23:11;12.80;99.90
21616;DHT22;10970;48.714;9.584;2023-04-24T07:25:36;13.00;99.90
21616;DHT22;10970;48.714;9.584;2023-04-24T07:28:04;13.10;99.90
21616;DHT22;10970;48.714;9.584;2023-04-24T07:30:30;13.20;99.90
21616;DHT22;10970;48.714;9.584;2023-04-24T07:32:58;13.00;99.90
21616;DHT22;10970;48.714;9.584;2023-04-24T07:35:24;12.80;99.90
21616;DHT22;10970;48.714;9.584;2023-04-24T07:37:52;12.50;99.90
21616;DHT22;10970;48.714;9.584;2023-04-24T07:40:18;12.90;99.90
21616;DHT22;10970;48.714;9.584;2023-04-24T07:42:44;13.10;99.90
21616;DHT22;10970;48.714;9.584;2023-04-24T07:45:10;13.30;99.90
21616;DHT22;10970;48.714;9.584;2023-04-24T07:47:36;13.20;99.90
21616;DHT22;10970;48.714;9.584;2023-04-24T07:50:03;13.00;99.90
21616;DHT22;10970;48.714;9.584;2023-04-24T07:52:28;12.60;99.90
21616;DHT22;10970;48.714;9.584;2023-04-24T07:54:54;12.30;99.90
21616;DHT22;10970;48.714;9.584;2023-04-24T07:57:24;12.20;99.90
21616;DHT22;10970;48.714;9.584;2023-04-24T07:59:50;11.80;99.90
21616;DHT22;10970;48.714;9.584;2023-04-24T08:02:16;11.50;99.90
21616;DHT22;10970;48.714;9.584;2023-04-24T08:04:42;11.20;99.90
21616;DHT22;10970;48.714;9.584;2023-04-24T08:07:07;10.90;99.90
21616;DHT22;10970;48.714;9.584;2023-04-24T08:09:33;10.40;99.90
21616;DHT22;10970;48.714;9.584;2023-04-24T08:11:59;10.10;99.90
21616;DHT22;10970;48.714;9.584;2023-04-24T08:14:25;9.80;99.90
21616;DHT22;10970;48.714;9.584;2023-04-24T08:19:16;10.00;99.90
21616;DHT22;10970;48.714;9.584;2023-04-24T08:21:42;10.50;99.90
21616;DHT22;10970;48.714;9.584;2023-04-24T08:24:07;11.30;99.90
21616;DHT22;10970;48.714;9.584;2023-04-24T08:26:33;12.00;99.90
21616;DHT22;10970;48.714;9.584;2023-04-24T08:28:59;12.00;99.90
21616;DHT22;10970;48.714;9.584;2023-04-24T08:31:24;12.00;99.90
21616;DHT22;10970;48.714;9.584;2023-04-24T08:33:51;12.40;99.90
21616;DHT22;10970;48.714;9.584;2023-04-24T08:36:17;13.10;99.90
21616;DHT22;10970;48.714;9.584;2023-04-24T08:38:42;13.50;99.90
21616;DHT22;10970;48.714;9.584;2023-04-24T08:41:09;13.60;99.90
21616;DHT22;10970;48.714;9.584;2023-04-24T08:43:35;13.20;99.90
21616;DHT22;10970;48.714;9.584;2023-04-24T08:46:04;12.70;99.90
21616;DHT22;10970;48.714;9.584;2023-04-24T08:48:30;12.10;99.90
21616;DHT22;10970;48.714;9.584;2023-04-24T08:50:57;11.80;99.90
21616;DHT22;10970;48.714;9.584;2023-04-24T08:53:24;11.50;99.90
21616;DHT22;10970;48.714;9.584;2023-04-24T08:55:50;11.50;99.90
21616;DHT22;10970;48.714;9.584;2023-04-24T08:58:17;11.50;99.90
21616;DHT22;10970;48.714;9.584;2023-04-24T09:00:43;11.50;99.90
21616;DHT22;10970;48.714;9.584;2023-04-24T09:03:13;11.30;99.90
21616;DHT22;10970;48.714;9.584;2023-04-24T09:05:46;11.50;99.90
21616;DHT22;10970;48.714;9.584;2023-04-24T09:08:13;11.80;99.90
21616;DHT22;10970;48.714;9.584;2023-04-24T09:10:39;12.00;99.90
21616;DHT22;10970;48.714;9.584;2023-04-24T09:13:06;11.90;99.90
21616;DHT22;10970;48.714;9.584;2023-04-24T09:15:34;11.90;99.90
21616;DHT22;10970;48.714;9.584;2023-04-24T09:18:00;12.40;99.90
21616;DHT22;10970;48.714;9.584;2023-04-24T09:20:27;12.70;99.90
21616;DHT22;10970;48.714;9.584;2023-04-24T09:22:57;13.00;99.90
21616;DHT22;10970;48.714;9.584;2023-04-24T09:25:34;13.20;99.90
21616;DHT22;10970;48.714;9.584;2023-04-24T09:28:04;13.60;99.90
21616;DHT22;10970;48.714;9.584;2023-04-24T09:30:32;13.90;99.90
21616;DHT22;10970;48.714;9.584;2023-04-24T09:33:14;14.00;99.90
21616;DHT22;10970;48.714;9.584;2023-04-24T09:35:49;14.00;99.90
21616;DHT22;10970;48.714;9.584;2023-04-24T09:38:15;13.90;99.90
21616;DHT22;10970;48.714;9.584;2023-04-24T09:40:40;13.70;99.90
21616;DHT22;10970;48.714;9.584;2023-04-24T09:43:10;13.40;99.90
21616;DHT22;10970;48.714;9.584;2023-04-24T09:45:38;13.30;99.90
21616;DHT22;10970;48.714;9.584;2023-04-24T09:48:04;13.30;99.90
21616;DHT22;10970;48.714;9.584;2023-04-24T09:50:32;13.40;99.90
21616;DHT22;10970;48.714;9.584;2023-04-24T09:53:05;13.70;99.90
21616;DHT22;10970;48.714;9.584;2023-04-24T09:55:31;13.80;99.90
21616;DHT22;10970;48.714;9.584;2023-04-24T09:58:01;13.60;99.90
21616;DHT22;10970;48.714;9.584;2023-04-24T10:00:31;13.60;99.90
21616;DHT22;10970;48.714;9.584;2023-04-24T10:02:59;13.20;99.90
21616;DHT22;10970;48.714;9.584;2023-04-24T10:05:32;13.10;99.90
21616;DHT22;10970;48.714;9.584;2023-04-24T10:08:03;13.30;99.90
21616;DHT22;10970;48.714;9.584;2023-04-24T10:10:30;13.50;99.90
21616;DHT22;10970;48.714;9.584;2023-04-24T10:12:56;13.60;99.90
21616;DHT22;10970;48.714;9.584;2023-04-24T10:15:22;13.70;99.90
21616;DHT22;10970;48.714;9.584;2023-04-24T10:17:49;13.60;99.90
21616;DHT22;10970;48.714;9.584;2023-04-24T10:20:31;13.30;99.90
21616;DHT22;10970;48.714;9.584;2023-04-24T10:22:58;13.20;99.90
21616;DHT22;10970;48.714;9.584;2023-04-24T10:25:29;13.20;99.90
21616;DHT22;10970;48.714;9.584;2023-04-24T10:27:59;13.20;99.90
21616;DHT22;10970;48.714;9.584;2023-04-24T10:30:27;13.60;99.90
21616;DHT22;10970;48.714;9.584;2023-04-24T10:32:53;13.80;99.90
21616;DHT22;10970;48.714;9.584;2023-04-24T10:35:19;13.90;99.90
21616;DHT22;10970;48.714;9.584;2023-04-24T10:38:09;13.80;99.90
21616;DHT22;10970;48.714;9.584;2023-04-24T10:40:36;13.60;99.90
21616;DHT22;10970;48.714;9.584;2023-04-24T10:43:03;13.40;99.90
21616;DHT22;10970;48.714;9.584;2023-04-24T10:45:34;13.30;99.90
21616;DHT22;10970;48.714;9.584;2023-04-24T10:48:04;13.20;99.90
21616;DHT22;10970;48.714;9.584;2023-04-24T10:50:46;13.10;99.90
21616;DHT22;10970;48.714;9.584;2023-04-24T10:53:20;13.30;99.90
21616;DHT22;10970;48.714;9.584;2023-04-24T10:55:51;13.50;99.90
21616;DHT22;10970;48.714;9.584;2023-04-24T10:58:22;13.80;99.90
21616;DHT22;10970;48.714;9.584;2023-04-24T11:01:00;14.20;99.90
21616;DHT22;10970;48.714;9.584;2023-04-24T11:03:31;14.70;99.90
21616;DHT22;10970;48.714;9.584;2023-04-24T11:08:48;15.20;99.90
21616;DHT22;10970;48.714;9.584;2023-04-24T11:11:16;15.50;99.90
21616;DHT22;10970;48.714;9.584;2023-04-24T11:14:09;15.60;99.90
21616;DHT22;10970;48.714;9.584;2023-04-24T11:16:45;15.60;99.90
21616;DHT22;10970;48.714;9.584;2023-04-24T11:21:46;15.00;99.90
21616;DHT22;10970;48.714;9.584;2023-04-24T11:24:31;15.00;99.90
21616;DHT22;10970;48.714;9.584;2023-04-24T11:30:01;14.40;99.90
21616;DHT22;10970;48.714;9.584;2023-04-24T11:37:38;13.50;99.90
21616;DHT22;10970;48.714;9.584;2023-04-24T11:40:06;13.40;99.90
21616;DHT22;10970;48.714;9.584;2023-04-24T11:42:46;13.30;99.90
21616;DHT22;10970;48.714;9.584;2023-04-24T11:45:18;13.10;99.90
21616;DHT22;10970;48.714;9.584;2023-04-24T11:47:44;13.00;99.90
21616;DHT22;10970;48.714;9.584;2023-04-24T11:50:15;13.10;99.90
21616;DHT22;10970;48.714;9.584;2023-04-24T11:52:43;12.90;99.90
21616;DHT22;10970;48.714;9.584;2023-04-24T11:57:46;12.50;99.90
21616;DHT22;10970;48.714;9.584;2023-04-24T12:00:23;12.50;99.90
21616;DHT22;10970;48.714;9.584;2023-04-24T12:02:49;12.50;99.90
21616;DHT22;10970;48.714;9.584;2023-04-24T12:05:35;12.70;99.90
21616;DHT22;10970;48.714;9.584;2023-04-24T12:08:01;13.00;99.90
21616;DHT22;10970;48.714;9.584;2023-04-24T12:10:30;13.30;99.90
21616;DHT22;10970;48.714;9.584;2023-04-24T12:12:57;13.60;99.90
21616;DHT22;10970;48.714;9.584;2023-04-24T12:15:24;13.70;99.90
21616;DHT22;10970;48.714;9.584;2023-04-24T12:17:54;14.00;99.90
21616;DHT22;10970;48.714;9.584;2023-04-24T12:20:29;13.90;99.90
21616;DHT22;10970;48.714;9.584;2023-04-24T12:22:56;13.80;99.90
21616;DHT22;10970;48.714;9.584;2023-04-24T12:25:24;13.50;99.90
21616;DHT22;10970;48.714;9.584;2023-04-24T12:27:55;13.20;99.90
21616;DHT22;10970;48.714;9.584;2023-04-24T12:30:27;12.80;99.90
21616;DHT22;10970;48.714;9.584;2023-04-24T12:32:58;12.80;99.90
21616;DHT22;10970;48.714;9.584;2023-04-24T12:35:25;12.80;99.90
21616;DHT22;10970;48.714;9.584;2023-04-24T12:37:53;13.10;99.90
21616;DHT22;10970;48.714;9.584;2023-04-24T12:40:20;13.50;99.90
21616;DHT22;10970;48.714;9.584;2023-04-24T12:42:51;13.90;99.90
21616;DHT22;10970;48.714;9.584;2023-04-24T12:45:18;14.20;99.90
21616;DHT22;10970;48.714;9.584;2023-04-24T12:47:45;14.40;99.90
21616;DHT22;10970;48.714;9.584;2023-04-24T12:50:13;14.50;99.90
21616;DHT22;10970;48.714;9.584;2023-04-24T12:52:40;14.40;99.90
21616;DHT22;10970;48.714;9.584;2023-04-24T12:55:08;14.20;99.90
21616;DHT22;10970;48.714;9.584;2023-04-24T12:57:38;14.10;99.90
21616;DHT22;10970;48.714;9.584;2023-04-24T13:00:05;14.10;99.90
21616;DHT22;10970;48.714;9.584;2023-04-24T13:02:31;13.70;99.90
21616;DHT22;10970;48.714;9.584;2023-04-24T13:04:58;13.50;99.90
21616;DHT22;10970;48.714;9.584;2023-04-24T13:07:26;13.30;99.90
21616;DHT22;10970;48.714;9.584;2023-04-24T13:09:52;13.20;99.90
21616;DHT22;10970;48.714;9.584;2023-04-24T13:12:19;13.30;99.90
21616;DHT22;10970;48.714;9.584;2023-04-24T13:14:45;13.50;99.90
21616;DHT22;10970;48.714;9.584;2023-04-24T13:17:11;13.60;99.90
21616;DHT22;10970;48.714;9.584;2023-04-24T13:19:39;13.60;99.90
21616;DHT22;10970;48.714;9.584;2023-04-24T13:22:08;13.90;99.90
21616;DHT22;10970;48.714;9.584;2023-04-24T13:24:37;14.10;99.90
21616;DHT22;10970;48.714;9.584;2023-04-24T13:27:03;13.90;99.90
21616;DHT22;10970;48.714;9.584;2023-04-24T13:29:30;13.80;99.90
21616;DHT22;10970;48.714;9.584;2023-04-24T13:31:56;13.80;99.90
21616;DHT22;10970;48.714;9.584;2023-04-24T13:34:25;13.50;99.90
21616;DHT22;10970;48.714;9.584;2023-04-24T13:36:55;13.30;99.90
21616;DHT22;10970;48.714;9.584;2023-04-24T13:39:22;13.20;99.90
21616;DHT22;10970;48.714;9.584;2023-04-24T13:41:48;13.20;99.90
21616;DHT22;10970;48.714;9.584;2023-04-24T13:44:15;13.40;99.90
21616;DHT22;10970;48.714;9.584;2023-04-24T13:46:42;13.40;99.90
21616;DHT22;10970;48.714;9.584;2023-04-24T13:49:09;13.80;99.90
21616;DHT22;10970;48.714;9.584;2023-04-24T13:51:34;14.10;99.90
21616;DHT22;10970;48.714;9.584;2023-04-24T13:54:00;14.00;99.90
21616;DHT22;10970;48.714;9.584;2023-04-24T13:56:27;13.90;99.90
21616;DHT22;10970;48.714;9.584;2023-04-24T13:58:53;13.90;99.90
21616;DHT22;10970;48.714;9.584;2023-04-24T14:01:22;13.90;99.90
21616;DHT22;10970;48.714;9.584;2023-04-24T14:03:52;14.10;99.90
21616;DHT22;10970;48.714;9.584;2023-04-24T14:06:18;14.30;99.90
21616;DHT22;10970;48.714;9.584;2023-04-24T14:08:47;14.50;99.90
21616;DHT22;10970;48.714;9.584;2023-04-24T14:11:13;14.20;99.90
21616;DHT22;10970;48.714;9.584;2023-04-24T14:13:41;14.20;99.90
21616;DHT22;10970;48.714;9.584;2023-04-24T14:16:07;14.10;99.90
21616;DHT22;10970;48.714;9.584;2023-04-24T14:18:33;13.80;99.90
21616;DHT22;10970;48.714;9.584;2023-04-24T14:20:59;13.50;99.90
21616;DHT22;10970;48.714;9.584;2023-04-24T14:23:27;13.20;99.90
21616;DHT22;10970;48.714;9.584;2023-04-24T14:25:52;12.80;99.90
21616;DHT22;10970;48.714;9.584;2023-04-24T14:28:19;12.60;99.90
21616;DHT22;10970;48.714;9.584;2023-04-24T14:30:46;12.60;99.90
21616;DHT22;10970;48.714;9.584;2023-04-24T14:33:13;12.40;99.90
21616;DHT22;10970;48.714;9.584;2023-04-24T14:35:40;12.30;99.90
21616;DHT22;10970;48.714;9.584;2023-04-24T14:38:07;12.10;99.90
21616;DHT22;10970;48.714;9.584;2023-04-24T14:40:33;12.20;99.90
21616;DHT22;10970;48.714;9.584;2023-04-24T14:42:59;12.30;99.90
21616;DHT22;10970;48.714;9.584;2023-04-24T14:45:26;12.40;99.90
21616;DHT22;10970;48.714;9.584;2023-04-24T14:47:53;12.50;99.90
21616;DHT22;10970;48.714;9.584;2023-04-24T14:50:19;12.80;99.90
21616;DHT22;10970;48.714;9.584;2023-04-24T14:52:47;13.50;99.90
21616;DHT22;10970;48.714;9.584;2023-04-24T14:55:13;13.70;99.90
21616;DHT22;10970;48.714;9.584;2023-04-24T14:57:39;13.60;99.90
21616;DHT22;10970;48.714;9.584;2023-04-24T15:00:06;13.70;99.90
21616;DHT22;10970;48.714;9.584;2023-04-24T15:02:34;13.30;99.90
21616;DHT22;10970;48.714;9.584;2023-04-24T15:05:02;13.00;99.90
21616;DHT22;10970;48.714;9.584;2023-04-24T15:07:29;12.80;99.90
21616;DHT22;10970;48.714;9.584;2023-04-24T15:09:55;12.60;99.90
21616;DHT22;10970;48.714;9.584;2023-04-24T15:12:21;12.40;99.90
21616;DHT22;10970;48.714;9.584;2023-04-24T15:14:48;11.90;99.90
21616;DHT22;10970;48.714;9.584;2023-04-24T15:17:14;11.40;99.90
21616;DHT22;10970;48.714;9.584;2023-04-24T15:19:39;11.40;99.90
21616;DHT22;10970;48.714;9.584;2023-04-24T15:22:05;11.50;99.90
21616;DHT22;10970;48.714;9.584;2023-04-24T15:24:31;11.60;99.90
21616;DHT22;10970;48.714;9.584;2023-04-24T15:26:57;11.70;99.90
21616;DHT22;10970;48.714;9.584;2023-04-24T15:29:24;11.80;99.90
21616;DHT22;10970;48.714;9.584;2023-04-24T15:31:50;11.90;99.90
21616;DHT22;10970;48.714;9.584;2023-04-24T15:34:17;11.90;99.90
21616;DHT22;10970;48.714;9.584;2023-04-24T15:36:42;12.00;99.90
21616;DHT22;10970;48.714;9.584;2023-04-24T15:39:10;12.30;99.90
21616;DHT22;10970;48.714;9.584;2023-04-24T15:41:35;12.50;99.90
21616;DHT22;10970;48.714;9.584;2023-04-24T15:44:01;12.30;99.90
21616;DHT22;10970;48.714;9.584;2023-04-24T15:46:27;12.20;99.90
21616;DHT22;10970;48.714;9.584;2023-04-24T15:48:53;12.00;99.90